チューク諸島 の空港の天気 - METARとTAF

チューク国際空港 ( PTKK / TKK ) - ミクロネシア連邦 チューク諸島
飛行場実況気象(Metar)
観測時間12/14 15:50 +10 (12/14 05:50 UTC)
風向・風速北 3m/s
視程10km以上
天気現象
少しの雲 雲底高度 430m
全天の4割程度の雲 雲底高度 3660m
全天を覆う雲 雲底高度 8530m
気温30.3℃
湿度85%
気圧1005.4hPa
METARPTKK 140550Z 36006KT 15SM FEW014TCU SCT120 OVC280 30/28 A2968 RMK TCU N AND E SLP054 8/271 T03030275 10311 20299 55007
過去の天気等 Google飛行場航空写真 Wunderground天気予報

過去48時間のMETAR

飛行場予報(TAF)
発表時間: 12/14 15:38 +10 (12/14 05:38 UTC)
予報対象時間: 14日16時 +10 ~ 15日16時 +10
風向・風速北北東 6m/s
視程10km以上
天気現象周辺でしゅう雨
少しの雲 雲底高度 550m
全天の4割程度の雲 雲底高度 1520m
14日19時 +10 から
風向・風速東北東 6m/s
視程10km以上
天気現象周辺でしゅう雨
全天の4割程度の雲 雲底高度 550m
全天の4割程度の雲 雲底高度 1520m
15日4時 +10 から
風向・風速不定 3m/s
視程10km以上
天気現象周辺でしゅう雨
少しの雲 雲底高度 550m
全天の4割程度の雲 雲底高度 1520m
PTKK 140538Z 1406/1506 03011KT P6SM VCSH FEW018 SCT050
FM140900 07011KT P6SM VCSH SCT018 SCT050
FM141800 VRB05KT P6SM VCSH FEW018 SCT050